Time;durP1;ratioP1;P1;durP2;ratioP2;P2;SDS_P1;SDS_P2;PMS_P1;PMS_P2;Temp;Humidity;BMP_temperature;BMP_pressure;BME280_temperature;BME280_humidity;BME280_pressure;Samples;Min_cycle;Max_cycle;Signal;HPM_P1;HPM_P2
2021/06/28 00:01:26;;;;;;;8.97;8.17;;;22.90;99.90;;;;;;5042204;28;20761;-75
2021/06/28 00:03:53;;;;;;;8.97;8.17;;;22.90;99.90;;;;;;5042561;28;20184;-74
2021/06/28 00:06:19;;;;;;;9.00;8.10;;;22.90;99.90;;;;;;5046570;28;20264;-73
2021/06/28 00:08:45;;;;;;;9.17;8.37;;;23.00;99.90;;;;;;5045033;28;20429;-72
2021/06/28 00:11:11;;;;;;;8.90;8.10;;;23.00;99.90;;;;;;5023189;28;20475;-73
2021/06/28 00:13:39;;;;;;;9.50;8.60;;;23.00;99.90;;;;;;5046413;28;20975;-74
2021/06/28 00:16:05;;;;;;;9.03;8.17;;;23.00;99.90;;;;;;5042025;28;20214;-75
2021/06/28 00:18:32;;;;;;;9.13;8.23;;;23.00;99.90;;;;;;5041636;28;20986;-74
2021/06/28 00:21:00;;;;;;;7.80;7.03;;;23.00;99.90;;;;;;5044010;28;20192;-73
2021/06/28 00:23:25;;;;;;;7.73;7.03;;;23.00;99.90;;;;;;5024235;28;20434;-74
2021/06/28 00:25:51;;;;;;;7.90;7.20;;;23.00;99.90;;;;;;5039619;28;20530;-74
2021/06/28 00:28:21;;;;;;;10.47;8.00;;;23.10;99.90;;;;;;5045831;28;20203;-73
2021/06/28 00:30:47;;;;;;;8.70;8.00;;;23.00;99.90;;;;;;5047552;28;20432;-75
2021/06/28 00:33:16;;;;;;;9.33;8.50;;;23.00;99.90;;;;;;5021937;28;20440;-73
2021/06/28 00:35:42;;;;;;;13.90;8.50;;;23.00;99.90;;;;;;5043432;28;20446;-73
2021/06/28 00:38:09;;;;;;;9.37;8.47;;;23.10;99.90;;;;;;5042192;28;20457;-74
2021/06/28 00:40:36;;;;;;;9.77;8.83;;;22.90;99.90;;;;;;5006626;28;21220;-72
2021/06/28 00:43:02;;;;;;;11.93;8.70;;;23.00;99.90;;;;;;5044481;28;20458;-74
2021/06/28 00:45:55;;;;;;;9.57;8.60;;;23.00;99.90;;;;;;5039984;28;21008;-73
2021/06/28 00:48:21;;;;;;;10.83;8.23;;;23.10;99.90;;;;;;5037331;28;20453;-74
2021/06/28 00:50:53;;;;;;;8.80;8.00;;;23.10;99.90;;;;;;5046803;28;20978;-74
2021/06/28 00:53:22;;;;;;;8.70;7.93;;;23.10;99.90;;;;;;5025212;28;20173;-72
2021/06/28 00:55:48;;;;;;;8.30;7.50;;;23.20;99.90;;;;;;5027150;28;21194;-73
2021/06/28 00:58:15;;;;;;;8.90;8.10;;;23.10;99.90;;;;;;5039373;28;20550;-73
2021/06/28 01:00:41;;;;;;;7.90;7.13;;;23.00;99.90;;;;;;5023701;28;20498;-73
2021/06/28 01:03:08;;;;;;;9.50;8.60;;;23.10;99.90;;;;;;5040287;28;20455;-73
2021/06/28 01:05:36;;;;;;;9.40;8.43;;;22.90;99.90;;;;;;5023243;28;20465;-72
2021/06/28 01:08:04;;;;;;;9.17;7.90;;;23.00;99.90;;;;;;5043120;28;20484;-72
2021/06/28 01:10:31;;;;;;;8.63;7.73;;;23.10;99.90;;;;;;5042442;28;20436;-73
2021/06/28 01:12:57;;;;;;;8.90;7.83;;;23.00;99.90;;;;;;5022955;28;20439;-73
2021/06/28 01:15:23;;;;;;;8.73;8.00;;;23.00;99.90;;;;;;5025140;28;20435;-75
2021/06/28 01:17:50;;;;;;;9.70;8.80;;;22.90;99.90;;;;;;5042746;28;20491;-74
2021/06/28 01:20:19;;;;;;;9.50;8.53;;;23.00;99.90;;;;;;5025454;28;20426;-73
2021/06/28 01:22:48;;;;;;;8.90;8.10;;;23.00;99.90;;;;;;5043887;28;20511;-72
2021/06/28 01:25:16;;;;;;;8.40;7.70;;;23.10;99.90;;;;;;5038496;28;20514;-73
2021/06/28 01:27:43;;;;;;;10.30;9.20;;;22.80;99.90;;;;;;5027114;28;20466;-73
2021/06/28 01:30:13;;;;;;;9.20;8.30;;;22.70;99.90;;;;;;5046308;28;20426;-72
2021/06/28 01:32:40;;;;;;;10.07;8.60;;;22.70;99.90;;;;;;5040441;28;20451;-73
2021/06/28 01:35:06;;;;;;;9.00;8.10;;;22.80;99.90;;;;;;5038783;28;20963;-73
2021/06/28 01:37:32;;;;;;;8.73;7.93;;;22.80;99.90;;;;;;5042055;28;20951;-72
2021/06/28 01:40:01;;;;;;;9.47;8.20;;;22.90;99.90;;;;;;5021454;28;20592;-74
2021/06/28 01:42:28;;;;;;;9.03;8.20;;;22.90;99.90;;;;;;5042252;28;20308;-74
2021/06/28 01:44:54;;;;;;;8.07;7.37;;;22.90;99.90;;;;;;5045096;28;20433;-73
2021/06/28 01:47:21;;;;;;;8.83;8.00;;;22.90;99.90;;;;;;5039965;28;20446;-74
2021/06/28 01:49:47;;;;;;;7.50;6.80;;;22.90;99.90;;;;;;5043564;28;20560;-72
2021/06/28 01:52:13;;;;;;;10.17;8.00;;;22.70;99.90;;;;;;5044981;28;20529;-74
2021/06/28 01:54:39;;;;;;;8.17;7.53;;;22.70;99.90;;;;;;5044251;28;20205;-74
2021/06/28 01:57:06;;;;;;;10.30;6.47;;;22.80;99.90;;;;;;5043358;28;21058;-74
2021/06/28 01:59:35;;;;;;;8.20;7.50;;;23.00;99.90;;;;;;5050341;28;20473;-74
2021/06/28 02:02:03;;;;;;;8.30;7.50;;;22.90;99.90;;;;;;5006864;28;20496;-72
2021/06/28 02:04:29;;;;;;;10.37;8.03;;;22.80;99.90;;;;;;5041920;28;20442;-74
2021/06/28 02:06:56;;;;;;;8.50;7.80;;;22.80;99.90;;;;;;5023130;28;20461;-73
2021/06/28 02:09:22;;;;;;;8.77;7.63;;;22.80;99.90;;;;;;5042840;28;20437;-73
2021/06/28 02:11:49;;;;;;;8.67;7.47;;;22.70;99.90;;;;;;5046094;28;20438;-73
2021/06/28 02:14:15;;;;;;;7.97;7.27;;;22.80;99.90;;;;;;5025401;28;20188;-74
2021/06/28 02:16:46;;;;;;;7.53;6.83;;;22.80;99.90;;;;;;5027927;28;20466;-73
2021/06/28 02:19:13;;;;;;;8.23;7.30;;;22.80;99.90;;;;;;5024863;28;21075;-73
2021/06/28 02:21:43;;;;;;;10.63;7.37;;;23.00;99.90;;;;;;5020019;28;21025;-72
2021/06/28 02:24:10;;;;;;;7.40;6.70;;;23.00;99.90;;;;;;5037794;28;20434;-74
2021/06/28 02:26:36;;;;;;;7.20;6.50;;;22.90;99.90;;;;;;5045348;28;20892;-72
2021/06/28 02:29:02;;;;;;;7.83;7.13;;;22.90;99.90;;;;;;5042253;28;20418;-72
2021/06/28 02:31:28;;;;;;;7.60;6.80;;;22.80;99.90;;;;;;5020751;28;20831;-74
2021/06/28 02:33:55;;;;;;;9.10;7.10;;;22.90;99.90;;;;;;5039875;28;20625;-74
2021/06/28 02:36:22;;;;;;;8.00;7.03;;;22.80;99.90;;;;;;5042441;28;20469;-72
2021/06/28 02:38:49;;;;;;;7.80;7.10;;;22.80;99.90;;;;;;5041617;28;20498;-74
2021/06/28 02:41:16;;;;;;;12.80;7.93;;;22.90;99.90;;;;;;5041944;28;20640;-74
2021/06/28 02:43:42;;;;;;;9.70;7.27;;;22.90;99.90;;;;;;5006839;28;20969;-73
2021/06/28 02:46:09;;;;;;;9.47;8.47;;;22.70;99.90;;;;;;5041518;28;20445;-74
2021/06/28 02:48:36;;;;;;;7.33;6.63;;;22.60;99.90;;;;;;5043200;28;20860;-73
2021/06/28 02:51:04;;;;;;;7.43;6.67;;;22.50;99.90;;;;;;5039373;28;21025;-73
2021/06/28 02:53:29;;;;;;;7.60;6.90;;;22.50;99.90;;;;;;5039659;28;20449;-74
2021/06/28 02:56:12;;;;;;;8.07;7.27;;;22.40;99.90;;;;;;5044855;28;20506;-72
2021/06/28 02:58:38;;;;;;;7.00;6.30;;;22.30;99.90;;;;;;5037957;28;20212;-73
2021/06/28 03:01:03;;;;;;;8.30;6.87;;;22.50;99.90;;;;;;5039595;28;20422;-72
2021/06/28 03:03:29;;;;;;;7.50;6.10;;;22.30;99.90;;;;;;5043207;28;20431;-75
2021/06/28 03:05:55;;;;;;;7.43;6.80;;;22.40;99.90;;;;;;5023370;28;20249;-73
2021/06/28 03:08:20;;;;;;;6.90;6.30;;;22.50;99.90;;;;;;5040690;28;20766;-74
2021/06/28 03:10:46;;;;;;;6.77;6.13;;;22.60;99.90;;;;;;5043129;28;20187;-73
2021/06/28 03:13:12;;;;;;;6.40;5.90;;;22.80;99.90;;;;;;5005020;28;20270;-73
2021/06/28 03:15:37;;;;;;;6.80;6.17;;;23.00;99.90;;;;;;5019431;28;20191;-74
2021/06/28 03:18:04;;;;;;;6.73;6.03;;;22.80;99.90;;;;;;5024980;28;20253;-74
2021/06/28 03:20:30;;;;;;;7.17;6.33;;;22.90;99.90;;;;;;5041761;28;20218;-72
2021/06/28 03:22:55;;;;;;;7.97;6.40;;;22.80;99.90;;;;;;5021717;28;20465;-74
2021/06/28 03:25:21;;;;;;;6.40;5.90;;;23.00;99.90;;;;;;5022211;28;20195;-75
2021/06/28 03:27:47;;;;;;;6.73;6.13;;;22.90;99.90;;;;;;5041948;28;20831;-73
2021/06/28 03:30:14;;;;;;;7.60;6.43;;;23.00;99.90;;;;;;5023760;28;20204;-74
2021/06/28 03:32:41;;;;;;;8.13;5.80;;;23.10;99.90;;;;;;5023334;28;20382;-73
2021/06/28 03:35:08;;;;;;;6.27;5.77;;;23.20;99.90;;;;;;5039203;28;20410;-72
2021/06/28 03:37:34;;;;;;;6.90;6.30;;;23.00;99.90;;;;;;5039637;28;20863;-73
2021/06/28 03:40:00;;;;;;;6.80;5.80;;;23.10;99.90;;;;;;5041064;28;20468;-73
2021/06/28 03:42:26;;;;;;;7.60;5.50;;;22.90;99.90;;;;;;5042232;28;20525;-74
2021/06/28 03:44:51;;;;;;;6.33;5.83;;;23.00;99.90;;;;;;5024334;28;20517;-73
2021/06/28 03:47:17;;;;;;;7.30;5.87;;;23.10;99.90;;;;;;5040350;28;20208;-72
2021/06/28 03:49:42;;;;;;;6.17;5.63;;;23.20;99.90;;;;;;5024948;28;20222;-74
2021/06/28 03:52:08;;;;;;;6.17;5.63;;;23.20;99.90;;;;;;5041327;28;20787;-72
2021/06/28 03:54:34;;;;;;;6.10;5.60;;;23.30;99.90;;;;;;5026003;28;20691;-73
2021/06/28 03:57:00;;;;;;;6.47;5.87;;;23.10;99.90;;;;;;5037158;28;20212;-73
2021/06/28 03:59:26;;;;;;;5.83;5.37;;;22.90;99.90;;;;;;5025058;28;20270;-74
2021/06/28 04:01:52;;;;;;;6.53;5.93;;;22.90;99.90;;;;;;5041979;28;20762;-73
2021/06/28 04:04:19;;;;;;;7.73;6.93;;;22.90;99.90;;;;;;5020068;28;20198;-73
2021/06/28 04:06:45;;;;;;;7.20;6.60;;;22.80;99.90;;;;;;5038995;28;20246;-75
2021/06/28 04:09:11;;;;;;;6.70;6.00;;;22.80;99.90;;;;;;5040642;28;20469;-74
2021/06/28 04:11:36;;;;;;;7.60;6.50;;;23.00;99.90;;;;;;5037150;28;20222;-75
2021/06/28 04:14:02;;;;;;;6.20;5.70;;;23.10;99.90;;;;;;5005336;28;20245;-74
2021/06/28 04:16:28;;;;;;;6.70;6.10;;;23.20;99.90;;;;;;5042641;28;20215;-74
2021/06/28 04:18:53;;;;;;;5.87;5.30;;;23.30;99.90;;;;;;5037494;28;20268;-73
2021/06/28 04:21:19;;;;;;;6.67;5.97;;;23.40;99.90;;;;;;5023780;28;20287;-73
2021/06/28 04:23:45;;;;;;;6.93;6.13;;;23.40;99.90;;;;;;5018810;28;20197;-75
2021/06/28 04:26:10;;;;;;;5.90;5.40;;;23.00;99.90;;;;;;5039557;28;20243;-72
2021/06/28 04:28:37;;;;;;;7.70;6.00;;;23.10;99.90;;;;;;5043366;28;20562;-75
2021/06/28 04:31:04;;;;;;;8.50;5.80;;;23.00;99.90;;;;;;5020922;28;20199;-74
2021/06/28 04:33:31;;;;;;;6.43;5.73;;;23.20;99.90;;;;;;5041070;28;20496;-74
2021/06/28 04:35:57;;;;;;;7.87;7.17;;;23.20;99.90;;;;;;5020890;28;20450;-74
2021/06/28 04:38:22;;;;;;;6.10;5.50;;;23.00;99.90;;;;;;5038849;28;20718;-73
2021/06/28 04:40:48;;;;;;;6.80;6.20;;;23.20;99.90;;;;;;5040879;28;20438;-74
2021/06/28 04:43:15;;;;;;;6.57;6.07;;;23.10;99.90;;;;;;5027578;28;20188;-74
2021/06/28 04:45:41;;;;;;;6.87;6.23;;;22.90;99.90;;;;;;5043943;28;20218;-75
2021/06/28 04:48:08;;;;;;;7.30;6.60;;;22.80;99.90;;;;;;5044178;28;20438;-74
2021/06/28 04:50:34;;;;;;;7.13;6.47;;;22.90;99.90;;;;;;5044249;28;20198;-75
2021/06/28 04:53:00;;;;;;;6.93;6.33;;;23.10;99.90;;;;;;5028110;28;20499;-73
2021/06/28 04:55:26;;;;;;;6.97;6.37;;;23.10;99.90;;;;;;5043940;28;20437;-75
2021/06/28 04:57:52;;;;;;;7.17;6.30;;;23.10;99.90;;;;;;5028720;28;20935;-75
2021/06/28 05:00:21;;;;;;;6.03;5.50;;;23.00;99.90;;;;;;5043133;28;20184;-74
2021/06/28 05:02:47;;;;;;;6.90;5.50;;;23.10;99.90;;;;;;5012104;28;20441;-74
2021/06/28 05:05:14;;;;;;;6.50;5.90;;;23.20;99.90;;;;;;5041737;28;20480;-74
2021/06/28 05:07:44;;;;;;;6.33;5.83;;;23.00;99.90;;;;;;5039653;28;20462;-75
2021/06/28 05:10:13;;;;;;;7.50;6.80;;;23.00;99.90;;;;;;5043141;28;20434;-74
2021/06/28 05:12:39;;;;;;;7.17;6.43;;;22.90;99.90;;;;;;5046532;28;20434;-73
2021/06/28 05:15:06;;;;;;;8.33;6.03;;;22.70;99.90;;;;;;5038992;28;20860;-74
2021/06/28 05:17:32;;;;;;;8.70;6.60;;;22.70;99.90;;;;;;5040898;28;20450;-74
2021/06/28 05:19:58;;;;;;;6.73;6.03;;;22.90;99.90;;;;;;5045449;28;20518;-75
2021/06/28 05:22:23;;;;;;;5.97;5.47;;;23.10;99.90;;;;;;5039837;28;20291;-74
2021/06/28 05:24:49;;;;;;;6.17;5.57;;;23.20;99.90;;;;;;5026794;28;20262;-72
2021/06/28 05:27:15;;;;;;;6.37;5.80;;;22.90;99.90;;;;;;5010675;28;20218;-74
2021/06/28 05:29:41;;;;;;;6.33;5.73;;;23.10;99.90;;;;;;5043140;28;20564;-73
2021/06/28 05:32:07;;;;;;;7.43;5.27;;;23.20;99.90;;;;;;5043132;28;20203;-76
2021/06/28 05:34:35;;;;;;;7.90;6.77;;;23.00;99.90;;;;;;5029323;28;20232;-74
2021/06/28 05:37:01;;;;;;;6.17;5.60;;;23.30;99.90;;;;;;5038226;28;20707;-75
2021/06/28 05:39:27;;;;;;;5.63;5.13;;;23.60;99.90;;;;;;5043535;28;20556;-74
2021/06/28 05:41:52;;;;;;;5.87;5.27;;;23.60;99.90;;;;;;5025058;28;20191;-75
2021/06/28 05:44:18;;;;;;;6.30;4.50;;;23.70;99.90;;;;;;5039959;28;20840;-74
2021/06/28 05:46:44;;;;;;;5.97;5.37;;;23.70;99.90;;;;;;5043417;28;20234;-73
2021/06/28 05:49:09;;;;;;;4.80;4.40;;;23.40;99.90;;;;;;5029980;28;20195;-73
2021/06/28 05:51:36;;;;;;;5.67;5.13;;;23.60;99.90;;;;;;5042050;28;20204;-73
2021/06/28 05:54:02;;;;;;;5.17;4.70;;;23.70;99.90;;;;;;5023291;28;20204;-74
2021/06/28 05:56:28;;;;;;;4.70;4.30;;;23.70;99.90;;;;;;5046771;28;20470;-76
2021/06/28 05:58:53;;;;;;;6.70;3.80;;;23.60;99.90;;;;;;5041417;28;20261;-73
2021/06/28 06:01:19;;;;;;;4.13;3.73;;;23.60;99.90;;;;;;5043565;28;20187;-75
2021/06/28 06:03:45;;;;;;;4.53;4.13;;;23.70;99.90;;;;;;5021830;28;20303;-74
2021/06/28 06:06:11;;;;;;;4.00;3.70;;;23.60;99.90;;;;;;5022555;28;20219;-73
2021/06/28 06:08:40;;;;;;;4.33;3.73;;;23.60;99.90;;;;;;5050367;28;20783;-73
2021/06/28 06:11:08;;;;;;;5.17;4.40;;;23.50;99.90;;;;;;5039208;28;20226;-73
2021/06/28 06:13:33;;;;;;;4.40;4.00;;;23.60;99.90;;;;;;5024018;28;20519;-76
2021/06/28 06:15:59;;;;;;;4.27;3.87;;;23.60;99.90;;;;;;5046118;28;20541;-75
2021/06/28 06:18:25;;;;;;;7.10;4.33;;;23.30;99.90;;;;;;5041938;28;20718;-74
2021/06/28 06:20:51;;;;;;;4.03;3.73;;;23.40;99.90;;;;;;5039127;28;20184;-74
2021/06/28 06:23:17;;;;;;;5.10;4.10;;;23.60;99.90;;;;;;5023419;28;21160;-73
2021/06/28 06:25:44;;;;;;;3.80;3.50;;;23.60;99.90;;;;;;5019538;28;20192;-75
2021/06/28 06:28:11;;;;;;;8.57;4.60;;;23.70;99.90;;;;;;5026061;28;20399;-75
2021/06/28 06:30:37;;;;;;;4.40;4.00;;;23.80;99.90;;;;;;5044988;28;20999;-75
2021/06/28 06:33:03;;;;;;;4.33;4.03;;;24.00;99.90;;;;;;5003167;28;20445;-76
2021/06/28 06:35:29;;;;;;;4.33;3.93;;;24.20;99.90;;;;;;5036939;28;20257;-74
2021/06/28 06:37:57;;;;;;;3.70;3.40;;;24.40;99.90;;;;;;5038861;28;20465;-75
2021/06/28 06:40:24;;;;;;;4.60;4.20;;;24.30;99.90;;;;;;5035859;28;20957;-75
2021/06/28 06:42:52;;;;;;;4.43;3.53;;;24.30;99.90;;;;;;5041462;28;20432;-74
2021/06/28 06:45:19;;;;;;;4.30;3.90;;;24.40;99.90;;;;;;5037520;28;20440;-74
2021/06/28 06:47:45;;;;;;;3.90;3.60;;;24.60;99.90;;;;;;5039815;28;20465;-74
2021/06/28 06:50:12;;;;;;;4.80;4.30;;;24.50;99.90;;;;;;5025059;28;20874;-74
2021/06/28 06:52:39;;;;;;;4.33;3.90;;;24.60;99.90;;;;;;5018867;28;20897;-72
2021/06/28 06:55:07;;;;;;;5.07;4.67;;;24.60;99.90;;;;;;5040719;28;20446;-73
2021/06/28 06:57:34;;;;;;;5.03;3.80;;;24.90;99.90;;;;;;5039595;28;20492;-75
2021/06/28 06:59:59;;;;;;;3.93;3.63;;;24.80;99.90;;;;;;5037104;28;20461;-73
2021/06/28 07:02:25;;;;;;;4.50;4.10;;;24.70;99.90;;;;;;5017209;28;20453;-74
2021/06/28 07:04:51;;;;;;;4.17;3.87;;;24.70;99.90;;;;;;5039457;28;20249;-73
2021/06/28 07:07:16;;;;;;;9.00;4.40;;;24.50;99.90;;;;;;5042060;28;20230;-74
2021/06/28 07:09:43;;;;;;;6.40;5.80;;;24.40;99.90;;;;;;5024482;28;20192;-74
2021/06/28 07:12:09;;;;;;;6.33;4.27;;;24.50;99.90;;;;;;5022380;28;20974;-73
2021/06/28 07:14:35;;;;;;;4.50;4.10;;;24.40;99.90;;;;;;5041729;28;21399;-74
2021/06/28 07:17:03;;;;;;;4.17;3.77;;;24.30;99.90;;;;;;5019312;28;20637;-74
2021/06/28 07:19:28;;;;;;;4.20;3.77;;;24.20;99.90;;;;;;5044235;28;20215;-73
2021/06/28 07:21:54;;;;;;;3.80;3.50;;;24.20;99.90;;;;;;5038939;28;20505;-75
2021/06/28 07:24:20;;;;;;;5.20;4.13;;;24.00;99.90;;;;;;5035919;28;20188;-73
2021/06/28 07:26:46;;;;;;;4.80;4.40;;;24.10;99.90;;;;;;5036142;28;20219;-72
2021/06/28 07:29:12;;;;;;;4.63;4.13;;;24.30;99.90;;;;;;5042187;28;20767;-74
2021/06/28 07:31:37;;;;;;;4.57;4.20;;;24.40;99.90;;;;;;5022586;28;20249;-74
2021/06/28 07:34:03;;;;;;;5.33;4.27;;;24.20;99.90;;;;;;5028767;28;20192;-74
2021/06/28 07:36:29;;;;;;;5.53;3.37;;;24.30;99.90;;;;;;5023333;28;20207;-74
2021/06/28 07:38:56;;;;;;;4.57;4.07;;;24.30;99.90;;;;;;5038269;28;20473;-74
2021/06/28 07:41:22;;;;;;;4.23;3.93;;;24.20;99.90;;;;;;5042176;28;20187;-74
2021/06/28 07:43:48;;;;;;;4.70;3.93;;;24.10;99.90;;;;;;5039279;28;20697;-73
2021/06/28 07:46:14;;;;;;;4.40;4.10;;;24.10;99.90;;;;;;5039350;28;20216;-73
2021/06/28 07:48:40;;;;;;;4.00;3.70;;;24.20;99.90;;;;;;5042950;28;20445;-75
2021/06/28 07:51:06;;;;;;;3.60;3.30;;;24.20;99.90;;;;;;5021590;28;20195;-73
2021/06/28 07:53:31;;;;;;;3.90;3.60;;;24.20;99.90;;;;;;5011260;28;20188;-75
2021/06/28 07:56:13;;;;;;;4.20;3.80;;;24.40;99.90;;;;;;5011226;28;20218;-73
2021/06/28 07:58:40;;;;;;;3.93;3.57;;;24.40;99.90;;;;;;5039782;28;20207;-75
2021/06/28 08:01:06;;;;;;;3.60;3.30;;;24.70;99.90;;;;;;5036977;28;20521;-73
2021/06/28 08:03:31;;;;;;;4.90;4.50;;;24.70;99.90;;;;;;5043551;28;20536;-72
2021/06/28 08:05:57;;;;;;;4.57;3.23;;;24.90;99.90;;;;;;5036256;28;20246;-72
2021/06/28 08:08:22;;;;;;;3.80;3.50;;;24.90;99.90;;;;;;5007239;28;20217;-74
2021/06/28 08:10:49;;;;;;;3.97;3.67;;;25.00;99.90;;;;;;5037102;28;20931;-72
2021/06/28 08:13:14;;;;;;;3.70;3.40;;;25.10;99.90;;;;;;5039642;28;20768;-74
2021/06/28 08:15:40;;;;;;;3.30;3.10;;;25.30;99.90;;;;;;5004029;28;20455;-73
2021/06/28 08:18:06;;;;;;;3.03;2.83;;;25.60;99.90;;;;;;5044172;28;20706;-73
2021/06/28 08:20:34;;;;;;;3.97;3.57;;;25.70;99.90;;;;;;5036720;28;20180;-73
2021/06/28 08:23:00;;;;;;;3.13;2.93;;;25.70;99.90;;;;;;5044242;28;20688;-74
2021/06/28 08:25:26;;;;;;;4.57;3.63;;;25.80;99.90;;;;;;5044599;28;20429;-75
2021/06/28 08:27:52;;;;;;;5.57;3.70;;;25.90;99.90;;;;;;5039006;28;21057;-74
2021/06/28 08:30:18;;;;;;;4.97;3.60;;;25.90;99.90;;;;;;5029079;28;20206;-74
2021/06/28 08:32:44;;;;;;;5.20;3.70;;;25.80;99.90;;;;;;5041327;28;20436;-75
2021/06/28 08:35:10;;;;;;;3.70;3.40;;;26.00;99.90;;;;;;5019081;28;20450;-74
2021/06/28 08:37:36;;;;;;;3.20;3.00;;;26.10;99.90;;;;;;5046367;28;20235;-74
2021/06/28 08:40:04;;;;;;;3.40;2.80;;;26.20;99.90;;;;;;5041454;28;20754;-74
2021/06/28 08:42:30;;;;;;;4.67;3.30;;;26.10;99.90;;;;;;5021741;28;20456;-75
2021/06/28 08:44:55;;;;;;;3.67;3.37;;;26.10;99.90;;;;;;5045153;28;20468;-75
2021/06/28 08:47:21;;;;;;;4.33;3.97;;;26.30;99.90;;;;;;5041517;28;20540;-76
2021/06/28 08:49:48;;;;;;;3.53;3.27;;;26.30;99.90;;;;;;5021458;28;20192;-73
2021/06/28 08:52:15;;;;;;;3.97;3.60;;;26.30;99.90;;;;;;5029557;28;20438;-73
2021/06/28 08:54:40;;;;;;;3.93;3.63;;;26.30;99.90;;;;;;5026103;28;20453;-74
2021/06/28 08:57:06;;;;;;;3.70;3.40;;;26.40;99.90;;;;;;5038932;28;20461;-75
2021/06/28 08:59:32;;;;;;;3.90;3.60;;;26.70;99.90;;;;;;5025083;28;20235;-74
2021/06/28 09:01:58;;;;;;;4.33;3.97;;;26.60;99.90;;;;;;5038825;28;20470;-75
2021/06/28 09:04:24;;;;;;;5.53;3.53;;;26.60;99.90;;;;;;5041025;28;20172;-74
2021/06/28 09:06:49;;;;;;;6.23;5.00;;;26.50;99.90;;;;;;5045431;28;20257;-76
2021/06/28 09:09:16;;;;;;;4.40;4.00;;;26.70;99.90;;;;;;5042557;28;20903;-73
2021/06/28 09:11:50;;;;;;;5.90;5.33;;;26.50;99.90;;;;;;5037367;28;20618;-73
2021/06/28 09:14:18;;;;;;;4.20;3.90;;;26.30;99.90;;;;;;5027384;28;20434;-72
2021/06/28 09:16:46;;;;;;;4.03;3.63;;;26.40;99.90;;;;;;5048553;28;20977;-74
2021/06/28 09:19:18;;;;;;;5.30;4.80;;;26.40;99.90;;;;;;5021236;28;20504;-74
2021/06/28 09:21:46;;;;;;;4.30;3.90;;;26.60;99.90;;;;;;5043144;28;20433;-74
2021/06/28 09:24:31;;;;;;;3.87;3.57;;;27.00;99.90;;;;;;5043194;28;20433;-74
2021/06/28 09:27:09;;;;;;;4.47;4.07;;;27.20;99.90;;;;;;5039259;28;21000;-74
2021/06/28 09:29:36;;;;;;;4.63;4.23;;;27.50;99.90;;;;;;5040895;28;20490;-74
2021/06/28 09:32:11;;;;;;;5.43;3.70;;;27.70;99.90;;;;;;5020545;28;20445;-74
2021/06/28 09:34:39;;;;;;;5.60;4.60;;;27.90;99.90;;;;;;5041299;28;20456;-74
2021/06/28 09:37:05;;;;;;;5.90;4.57;;;27.70;99.90;;;;;;5043050;28;20624;-73
2021/06/28 09:39:36;;;;;;;4.50;4.10;;;28.00;99.90;;;;;;5040896;28;20458;-73
2021/06/28 09:42:08;;;;;;;9.37;8.33;;;28.00;99.90;;;;;;5040633;28;20481;-73
2021/06/28 09:44:39;;;;;;;5.60;5.07;;;28.20;99.90;;;;;;5018436;28;20446;-72
2021/06/28 09:47:15;;;;;;;5.47;4.87;;;28.20;99.90;;;;;;5041475;28;20863;-75
2021/06/28 09:50:19;;;;;;;5.77;4.13;;;28.20;99.90;;;;;;5025221;28;20441;-74
2021/06/28 09:52:48;;;;;;;4.63;4.30;;;28.30;99.90;;;;;;5044737;28;20468;-74
2021/06/28 09:55:18;;;;;;;4.23;3.70;;;28.20;99.90;;;;;;5042730;28;21438;-76
2021/06/28 09:58:09;;;;;;;6.20;5.10;;;28.30;99.90;;;;;;5046229;28;21153;-75
2021/06/28 10:00:37;;;;;;;4.63;4.23;;;28.20;99.90;;;;;;5023555;28;20504;-73
2021/06/28 10:03:05;;;;;;;5.93;5.53;;;28.30;99.90;;;;;;5049923;28;20466;-73
2021/06/28 10:05:51;;;;;;;4.20;3.90;;;28.30;99.90;;;;;;5043883;28;21872;-73
2021/06/28 10:08:17;;;;;;;3.87;3.63;;;28.10;99.90;;;;;;5040764;28;21095;-74
2021/06/28 10:10:43;;;;;;;4.67;4.20;;;28.00;99.90;;;;;;5046328;28;20529;-73
2021/06/28 10:13:10;;;;;;;4.10;3.80;;;27.80;99.90;;;;;;5023923;28;20187;-74
2021/06/28 10:15:41;;;;;;;5.13;4.20;;;27.70;99.90;;;;;;5037499;28;20190;-72
2021/06/28 10:18:09;;;;;;;4.87;4.43;;;27.60;99.90;;;;;;5039209;28;20823;-73
2021/06/28 10:20:39;;;;;;;4.40;4.00;;;27.50;99.90;;;;;;5009576;28;20439;-74
2021/06/28 10:23:06;;;;;;;4.60;4.20;;;27.60;99.90;;;;;;5038643;28;20423;-73
2021/06/28 10:25:34;;;;;;;4.60;4.20;;;27.60;99.90;;;;;;5040981;28;20437;-73
2021/06/28 10:28:01;;;;;;;4.60;4.20;;;27.90;99.90;;;;;;5045639;28;20981;-74
2021/06/28 10:30:28;;;;;;;8.00;4.50;;;28.10;99.90;;;;;;5040188;28;20867;-74
2021/06/28 10:33:08;;;;;;;4.07;3.77;;;28.20;99.90;;;;;;5041461;28;20452;-73
2021/06/28 10:35:38;;;;;;;6.30;4.77;;;28.10;99.90;;;;;;5038578;28;20461;-74
2021/06/28 10:38:13;;;;;;;4.40;4.00;;;28.20;99.90;;;;;;5022442;28;20462;-75
2021/06/28 10:40:50;;;;;;;4.80;4.00;;;28.40;99.90;;;;;;5035116;28;20431;-73
2021/06/28 10:43:34;;;;;;;4.27;3.83;;;28.70;99.90;;;;;;5040838;28;20516;-74
2021/06/28 10:46:03;;;;;;;4.10;3.80;;;29.00;99.90;;;;;;5020680;28;21033;-74
2021/06/28 10:48:30;;;;;;;5.07;4.57;;;29.10;99.90;;;;;;5016220;28;20438;-74
2021/06/28 10:51:03;;;;;;;4.27;3.90;;;29.10;99.90;;;;;;5038147;28;20539;-73
2021/06/28 10:53:32;;;;;;;7.13;4.10;;;29.10;99.90;;;;;;5023448;28;20438;-74
2021/06/28 10:56:26;;;;;;;4.50;4.00;;;29.30;99.90;;;;;;5035017;28;20564;-74
2021/06/28 10:59:01;;;;;;;3.70;3.50;;;29.40;99.90;;;;;;5040819;28;20845;-73
2021/06/28 11:01:40;;;;;;;5.20;4.77;;;29.30;99.90;;;;;;5037254;28;20526;-73
2021/06/28 11:04:06;;;;;;;7.43;6.83;;;29.50;99.90;;;;;;5038360;28;20418;-74
2021/06/28 11:06:33;;;;;;;4.20;3.80;;;29.70;99.90;;;;;;5042796;28;20478;-75
2021/06/28 11:09:05;;;;;;;6.70;5.07;;;29.80;99.90;;;;;;5038869;28;20469;-74
2021/06/28 11:11:55;;;;;;;4.77;4.27;;;29.80;99.90;;;;;;5035496;28;20435;-73
2021/06/28 11:14:21;;;;;;;4.40;4.00;;;29.90;99.90;;;;;;5009896;28;20553;-74
2021/06/28 11:17:10;;;;;;;5.80;4.10;;;30.00;99.90;;;;;;5039062;28;20458;-74
2021/06/28 11:19:51;;;;;;;4.43;3.77;;;30.10;99.90;;;;;;5040068;28;20466;-77
2021/06/28 11:22:37;;;;;;;4.37;3.97;;;30.20;99.90;;;;;;5035453;28;20553;-75
2021/06/28 11:25:10;;;;;;;4.03;3.73;;;30.40;99.90;;;;;;5043426;28;20434;-75
2021/06/28 11:27:37;;;;;;;4.07;3.77;;;30.50;99.90;;;;;;5041979;28;20498;-72
2021/06/28 11:30:05;;;;;;;3.80;3.50;;;30.60;99.90;;;;;;5039106;28;20554;-74
2021/06/28 11:32:32;;;;;;;4.37;4.07;;;30.40;99.90;;;;;;5039821;28;20441;-74
2021/06/28 11:34:58;;;;;;;4.63;4.23;;;30.60;99.90;;;;;;5039582;28;20438;-76
2021/06/28 11:37:26;;;;;;;5.93;3.87;;;30.80;99.90;;;;;;5018227;28;20476;-74
2021/06/28 11:39:57;;;;;;;4.10;3.70;;;31.10;99.90;;;;;;5038897;28;20993;-74
2021/06/28 11:42:33;;;;;;;4.33;4.03;;;31.30;99.90;;;;;;5033193;28;20417;-73
2021/06/28 11:45:05;;;;;;;4.03;3.73;;;31.40;99.90;;;;;;5022324;28;20442;-74
2021/06/28 11:47:48;;;;;;;4.50;4.10;;;31.60;99.90;;;;;;5021575;28;20433;-74
2021/06/28 11:50:26;;;;;;;4.30;4.00;;;31.90;99.90;;;;;;5036742;28;20422;-75
2021/06/28 11:53:00;;;;;;;3.73;3.43;;;32.10;99.90;;;;;;5046935;28;20420;-75
2021/06/28 11:55:30;;;;;;;3.87;3.60;;;32.30;99.90;;;;;;5035792;28;20403;-74
2021/06/28 11:57:57;;;;;;;4.20;3.90;;;32.60;99.90;;;;;;5036700;28;20437;-74
2021/06/28 12:00:23;;;;;;;3.83;3.53;;;32.80;99.90;;;;;;5020440;28;20444;-73
2021/06/28 12:03:17;;;;;;;4.73;3.40;;;33.30;99.90;;;;;;5040665;28;21170;-73
2021/06/28 12:05:44;;;;;;;3.97;3.57;;;33.60;99.90;;;;;;5027465;28;20487;-73
2021/06/28 12:08:12;;;;;;;3.87;3.57;;;34.50;99.90;;;;;;5030439;28;20418;-73
2021/06/28 12:10:39;;;;;;;3.80;3.50;;;35.20;99.80;;;;;;5032382;28;20416;-73
2021/06/28 12:13:05;;;;;;;3.90;3.60;;;37.00;99.90;;;;;;5034796;28;20491;-72
2021/06/28 12:15:31;;;;;;;4.30;4.00;;;38.30;98.70;;;;;;5003872;28;20803;-73
2021/06/28 12:18:03;;;;;;;3.57;3.37;;;39.30;94.90;;;;;;5037150;28;20215;-75
2021/06/28 12:20:30;;;;;;;3.90;3.60;;;39.90;90.90;;;;;;5029221;28;20521;-74
2021/06/28 12:22:57;;;;;;;5.50;4.17;;;38.30;82.50;;;;;;5011578;28;20482;-72
2021/06/28 12:25:23;;;;;;;3.57;3.37;;;38.10;83.50;;;;;;5019921;28;20437;-72
2021/06/28 12:27:49;;;;;;;3.90;3.60;;;38.70;83.90;;;;;;5001676;28;20544;-74
2021/06/28 12:30:15;;;;;;;3.97;3.77;;;39.10;81.60;;;;;;5014815;28;20195;-73
2021/06/28 12:32:51;;;;;;;4.70;4.30;;;38.00;83.50;;;;;;5017501;28;20427;-74
2021/06/28 12:35:21;;;;;;;4.47;4.10;;;38.20;83.60;;;;;;5018351;28;20192;-74
2021/06/28 12:37:52;;;;;;;6.13;3.80;;;38.70;81.80;;;;;;5010597;28;20573;-73
2021/06/28 12:40:37;;;;;;;4.50;3.80;;;38.50;81.90;;;;;;5017038;28;20467;-76
2021/06/28 12:43:15;;;;;;;4.00;3.70;;;38.30;79.20;;;;;;5017550;28;20461;-73
2021/06/28 12:45:47;;;;;;;4.60;4.20;;;37.90;81.30;;;;;;5016953;28;20463;-74
2021/06/28 12:48:23;;;;;;;4.50;4.13;;;39.20;79.10;;;;;;5010817;28;20508;-73
2021/06/28 12:51:01;;;;;;;4.03;3.77;;;40.70;75.10;;;;;;5007816;28;20456;-73